• Join FlightAware (Why Join?)
  • Login
  • US Flag 
09:51PM EDT


 

Airport Tracker/Info


-or-


 

Live Flight TrackerFlight Track Log ✈ ASQ5123 ✈ 13-May-2013 ✈ KATL - KMLI

Flight Track Log - Related Links

Times and Time Zones

All times are in EDT time to prevent confusion due to time zone crossing. See the ASQ5123 flight status page for this flight to view local times or setup timezone preferences in your user account.

Time Position Orientation Groundspeed Altitude Reporting Facility
EDT Latitude Longitude Course Direction KTS MPH feet Rate Location/Type
05:50PM 33.6536 -84.4781 291° West 443 510 2,800  Level Atlanta Center
05:51PM 33.6742 -84.5431 291° West 337 388 4,100 2,160 Climbing Atlanta Center
05:52PM 33.7283 -84.5858 327° Northwest 259 298 7,200 2,880 Climbing Atlanta Center
05:53PM 33.7994 -84.5839 North 253 291 9,900 1,740 Climbing Atlanta Center
05:54PM 33.8828 -84.5842 360° North 272 313 10,700 1,620 Climbing Atlanta Center
05:55PM 33.9661 -84.6072 347° North 298 343 13,200 2,220 Climbing Atlanta Center
05:56PM 34.0494 -84.6356 344° North 303 349 15,200 2,100 Climbing Atlanta Center
05:57PM 34.1369 -84.6711 341° North 309 356 17,400 1,800 Climbing Atlanta Center
05:58PM 34.2267 -84.7044 343° North 329 379 18,900 1,620 Climbing Atlanta Center
05:59PM 34.3161 -84.7431 340° North 341 392 20,700 1,680 Climbing Atlanta Center
06:00PM 34.3972 -84.7764 341° North 346 398 22,300 1,440 Climbing Atlanta Center
06:01PM 34.4911 -84.8175 340° North 351 404 23,600 1,320 Climbing Atlanta Center
06:02PM 34.5825 -84.8589 340° North 351 404 25,000 1,380 Climbing Atlanta Center
06:03PM 34.6844 -84.9053 339° North 351 404 26,400 1,200 Climbing Atlanta Center
06:04PM 34.7822 -84.9467 341° North 357 411 27,400 960 Climbing Atlanta Center
06:05PM 34.8822 -84.9908 340° North 368 423 28,400 1,320 Climbing Atlanta Center
06:06PM 34.9778 -85.0350 339° North 368 423 30,100 1,620 Climbing Atlanta Center
06:07PM 35.0733 -85.0792 339° North 368 423 31,700 1,200 Climbing Atlanta Center
06:08PM 35.1519 -85.1514 323° Northwest 354 407 32,500 1,020 Climbing Atlanta Center
06:09PM 35.2158 -85.2489 309° West 354 407 33,800 720 Climbing Atlanta Center
06:10PM 35.2772 -85.3489 307° West 359 413 34,000 600 Climbing Atlanta Center
06:11PM 35.3286 -85.4275 309° West 366 421 34,900 1,020 Climbing Memphis Center
06:12PM 35.3931 -85.5256 309° West 378 435 35,900 960 Climbing Memphis Center
06:13PM 35.4550 -85.6189 309° West 378 435 36,900 720 Climbing Memphis Center
06:14PM 35.5344 -85.6831 327° Northwest 344 396 37,400 480 Climbing Memphis Center
06:15PM 35.6142 -85.7450 328° Northwest 344 396 37,900 300 Climbing Memphis Center
06:16PM 35.6975 -85.8044 330° Northwest 344 396 38,000  Climbing Memphis Center
06:17PM 35.7725 -85.8617 328° Northwest 344 396 38,000  Level Memphis Center
06:18PM 35.8583 -85.9236 330° Northwest 352 405 38,000  Level Memphis Center
06:19PM 35.9419 -85.9883 328° Northwest 357 411 38,000  Level Memphis Center
06:20PM 36.0319 -86.0553 329° Northwest 357 411 38,000  Level Memphis Center
06:21PM 36.1322 -86.1297 329° Northwest 372 428 38,000  Level Memphis Center
06:22PM 36.2242 -86.1969 329° Northwest 382 440 38,000  Level Memphis Center
06:23PM 36.3142 -86.2644 329° Northwest 388 447 38,000  Level Memphis Center
06:24PM 36.4039 -86.3319 329° Northwest 381 438 38,000  Level Memphis Center
06:25PM 36.4914 -86.4000 328° Northwest 376 433 38,000  Level Memphis Center
06:26PM 36.5789 -86.4656 329° Northwest 376 433 38,000  Level Memphis Center
06:27PM 36.6622 -86.5314 328° Northwest 371 427 38,000  Level Memphis Center
06:28PM 36.7497 -86.5969 329° Northwest 366 421 38,000  Level Memphis Center
06:29PM 36.8353 -86.6656 327° Northwest 366 421 38,000  Level Memphis Center
06:30PM 36.9225 -86.7317 329° Northwest 366 421 38,000  Level Memphis Center
06:32PM 37.1206 -86.8858 328° Northwest 365 420 38,000  Level Indianapolis Center
06:33PM 37.2075 -86.9511 329° Northwest 363 418 38,000  Level Indianapolis Center
06:34PM 37.3083 -87.0303 328° Northwest 363 418 38,000  Level Indianapolis Center
06:35PM 37.3947 -87.0983 328° Northwest 362 417 38,000  Level Indianapolis Center
06:36PM 37.4811 -87.1672 328° Northwest 364 419 38,000  Level Indianapolis Center
06:37PM 37.5678 -87.2375 327° Northwest 367 422 38,000  Level Indianapolis Center
06:39PM 37.6556 -87.3050 329° Northwest 366 421 38,000  Level Indianapolis Center
06:40PM 37.7417 -87.3750 327° Northwest 364 419 38,000  Level Indianapolis Center
06:41PM 37.8372 -87.4500 328° Northwest 362 417 38,000  Level Indianapolis Center
06:42PM 37.9225 -87.5186 328° Northwest 360 414 38,000  Level Indianapolis Center
06:43PM 38.0072 -87.5878 327° Northwest 359 413 38,000  Level Indianapolis Center
06:44PM 38.0922 -87.6533 329° Northwest 355 409 38,000  Level Indianapolis Center
06:45PM 38.1761 -87.7217 327° Northwest 354 407 38,000  Level Indianapolis Center
06:46PM 38.2603 -87.7894 328° Northwest 354 407 38,000  Level Indianapolis Center
06:47PM 38.3622 -87.8717 328° Northwest 356 410 38,000  Level Indianapolis Center
06:48PM 38.4314 -87.9283 327° Northwest 359 413 38,000  Level Kansas City Center
06:49PM 38.5186 -87.9992 328° Northwest 363 418 38,000  Level Kansas City Center
06:50PM 38.6067 -88.0714 327° Northwest 369 425 38,000  Level Kansas City Center
06:51PM 38.6961 -88.1439 328° Northwest 375 432 38,000  Level Kansas City Center
06:52PM 38.7856 -88.2161 328° Northwest 378 435 38,000 -60 Level Kansas City Center
06:53PM 38.8733 -88.2894 327° Northwest 376 433 37,900 -600 Descending Kansas City Center
06:54PM 38.9792 -88.3769 327° Northwest 375 432 36,800 -900 Descending Kansas City Center
06:55PM 39.0692 -88.4486 328° Northwest 377 434 36,100 -720 Descending Kansas City Center
06:56PM 39.1542 -88.5189 327° Northwest 368 423 35,400 -720 Descending Kansas City Center
06:57PM 39.2411 -88.5925 327° Northwest 370 426 34,700 -660 Descending Kansas City Center
06:58PM 39.3247 -88.6628 327° Northwest 385 443 34,100 -720 Descending Kansas City Center
06:59PM 39.4369 -88.7564 327° Northwest 407 468 33,300 -780 Descending Kansas City Center
07:00PM 39.5336 -88.8375 327° Northwest 414 476 32,600 -720 Descending Kansas City Center
07:01PM 39.6283 -88.9169 327° Northwest 408 470 31,800 -720 Descending Kansas City Center
07:02PM 39.7200 -88.9928 328° Northwest 397 457 31,200 -660 Descending Kansas City Center
07:03PM 39.8100 -89.0708 326° Northwest 391 450 30,500 -780 Descending Kansas City Center
07:04PM 39.9161 -89.1614 327° Northwest 383 441 29,600 -780 Descending Kansas City Center
07:05PM 40.0056 -89.2369 327° Northwest 382 440 28,900 -720 Descending Kansas City Center
07:06PM 40.0919 -89.3125 326° Northwest 377 434 28,200 -720 Descending Kansas City Center
07:07PM 40.1442 -89.3586 326° Northwest 377 434 27,800 -720 Descending Chicago Center
07:08PM 40.2300 -89.4325 327° Northwest 371 427 27,100 -720 Descending Chicago Center
07:09PM 40.3153 -89.5061 327° Northwest 366 421 26,400 -720 Descending Chicago Center
07:10PM 40.4189 -89.5956 327° Northwest 372 428 25,600 -1,020 Descending Chicago Center
07:11PM 40.5014 -89.6675 326° Northwest 378 435 24,300 -1,620 Descending Chicago Center
07:12PM 40.5864 -89.7414 327° Northwest 371 427 22,300 -1,980 Descending Chicago Center
07:13PM 40.6703 -89.8156 326° Northwest 366 421 20,300 -2,160 Descending Chicago Center
07:14PM 40.7711 -89.9033 327° Northwest 363 418 17,800 -2,220 Descending Chicago Center
07:15PM 40.8511 -89.9739 326° Northwest 353 406 15,800 -2,040 Descending Chicago Center
07:16PM 40.9264 -90.0403 326° Northwest 341 392 13,700 -1,620 Descending Chicago Center
07:17PM 41.0000 -90.1064 326° Northwest 328 377 12,500 -1,260 Descending Chicago Center
07:18PM 41.0719 -90.1703 326° Northwest 316 364 11,100 -1,080 Descending Chicago Center
07:19PM 41.1383 -90.2144 333° Northwest 284 327 10,300 -2,040 Descending Chicago Center
07:20PM 41.2167 -90.2567 338° Northwest 262 302 6,900 -2,820 Descending Chicago Center
07:21PM 41.2892 -90.2947 338° Northwest 268 308 4,500 -1,740 Descending Chicago Center
07:22PM 41.3553 -90.3314 337° Northwest 265 305 3,400 -840 Descending Chicago Center
07:23PM 41.4067 -90.3622 336° Northwest 227 261 2,800 -780 Descending Chicago Center
07:24PM 41.4433 -90.4056 318° Northwest 196 226 1,800 -540 Descending Chicago Center
07:25PM 41.4739 -90.4461 315° West 188 216 1,700 -120 Descending Chicago Center
07:27PM 41.4333 -90.5000 323° Northwest  Level FlightAware Approximate